Time;durP1;ratioP1;P1;durP2;ratioP2;P2;SDS_P1;SDS_P2;PMS_P1;PMS_P2;Temp;Humidity;BMP_temperature;BMP_pressure;BME280_temperature;BME280_humidity;BME280_pressure;Samples;Min_cycle;Max_cycle;Signal;HPM_P1;HPM_P2
2021/01/08 00:01:47;;;;;;;168.90;92.95;;;16.80;57.40;;;;;;5114914;28;20080;-59
2021/01/08 00:04:13;;;;;;;166.93;92.40;;;16.80;57.10;;;;;;5115118;28;20031;-59
2021/01/08 00:06:39;;;;;;;165.93;91.03;;;16.80;56.90;;;;;;5115178;28;20026;-59
2021/01/08 00:09:05;;;;;;;163.23;90.22;;;16.90;56.90;;;;;;5115097;28;20354;-59
2021/01/08 00:11:35;;;;;;;166.07;90.80;;;17.00;56.60;;;;;;5114708;28;20077;-59
2021/01/08 00:14:03;;;;;;;161.90;84.57;;;15.70;54.70;;;;;;5115303;28;20051;-59
2021/01/08 00:16:33;;;;;;;156.75;84.93;;;17.20;56.00;;;;;;5114886;28;20277;-59
2021/01/08 00:18:58;;;;;;;146.20;81.07;;;17.30;55.90;;;;;;5115073;28;20046;-59
2021/01/08 00:21:34;;;;;;;158.77;84.22;;;17.20;56.60;;;;;;5114813;28;20457;-59
2021/01/08 00:23:59;;;;;;;160.13;80.78;;;17.20;56.00;;;;;;5114923;28;20030;-59
2021/01/08 00:26:25;;;;;;;135.15;75.78;;;17.30;56.00;;;;;;5114361;28;20024;-60
2021/01/08 00:28:50;;;;;;;150.43;81.05;;;17.20;55.90;;;;;;5114604;28;20062;-59
2021/01/08 00:31:16;;;;;;;141.63;80.43;;;17.30;56.00;;;;;;5115100;28;20020;-59
2021/01/08 00:33:41;;;;;;;135.90;76.10;;;17.30;56.10;;;;;;5114692;28;20023;-59
2021/01/08 00:36:07;;;;;;;138.10;73.65;;;17.30;56.10;;;;;;5114584;28;20369;-58
2021/01/08 00:38:33;;;;;;;135.05;75.38;;;17.30;56.20;;;;;;5114248;28;20635;-59
2021/01/08 00:40:59;;;;;;;135.25;76.03;;;17.20;56.20;;;;;;5114370;28;20028;-60
2021/01/08 00:43:24;;;;;;;131.68;74.45;;;17.30;56.20;;;;;;5114226;28;20103;-59
2021/01/08 00:45:50;;;;;;;125.22;72.25;;;17.30;56.10;;;;;;5114464;28;20059;-59
2021/01/08 00:48:16;;;;;;;128.73;69.50;;;17.50;55.70;;;;;;5114031;28;20023;-59
2021/01/08 00:50:41;;;;;;;131.73;71.78;;;17.60;55.30;;;;;;5114235;28;20509;-59
2021/01/08 00:53:07;;;;;;;119.95;67.10;;;17.70;55.10;;;;;;5114306;28;20028;-59
2021/01/08 00:55:32;;;;;;;122.40;68.88;;;17.70;55.00;;;;;;5113962;28;20024;-59
2021/01/08 00:57:58;;;;;;;124.55;69.80;;;17.70;54.90;;;;;;5114876;28;20483;-59
2021/01/08 01:00:23;;;;;;;117.80;65.72;;;17.60;55.00;;;;;;5114041;28;20114;-59
2021/01/08 01:02:49;;;;;;;119.38;65.03;;;17.70;55.20;;;;;;5114023;28;20023;-59
2021/01/08 01:05:14;;;;;;;115.97;65.35;;;17.60;55.10;;;;;;5114243;28;20031;-59
2021/01/08 01:07:40;;;;;;;113.72;63.70;;;17.50;55.30;;;;;;5114107;28;20024;-59
2021/01/08 01:10:06;;;;;;;115.40;64.40;;;17.40;55.50;;;;;;5113625;28;20043;-59
2021/01/08 01:12:32;;;;;;;103.88;60.55;;;17.40;55.60;;;;;;5114152;28;20028;-59
2021/01/08 01:14:57;;;;;;;116.60;63.17;;;17.30;55.70;;;;;;5114042;28;20484;-59
2021/01/08 01:17:23;;;;;;;114.93;63.47;;;17.30;55.70;;;;;;5114157;28;20027;-59
2021/01/08 01:19:48;;;;;;;110.63;59.45;;;17.30;55.80;;;;;;5114005;28;20032;-59
2021/01/08 01:22:14;;;;;;;109.13;60.58;;;17.20;55.80;;;;;;5113978;28;20115;-59
2021/01/08 01:24:40;;;;;;;112.25;59.25;;;17.20;55.80;;;;;;5113684;28;20477;-60
2021/01/08 01:27:05;;;;;;;104.40;57.35;;;17.20;55.80;;;;;;5114143;28;20483;-59
2021/01/08 01:29:31;;;;;;;102.65;56.47;;;17.20;55.90;;;;;;5114171;28;20042;-59
2021/01/08 01:31:56;;;;;;;98.40;56.03;;;17.10;55.80;;;;;;5113866;28;20071;-59
2021/01/08 01:34:22;;;;;;;94.38;54.55;;;17.10;55.90;;;;;;5113933;28;20020;-59
2021/01/08 01:36:48;;;;;;;93.80;54.10;;;17.00;56.00;;;;;;5113862;28;20019;-60
2021/01/08 01:39:14;;;;;;;98.03;52.22;;;17.00;56.20;;;;;;5113525;28;20055;-59
2021/01/08 01:41:41;;;;;;;96.78;52.17;;;17.00;56.30;;;;;;5113771;28;20036;-60
2021/01/08 01:44:06;;;;;;;90.28;50.17;;;16.90;56.50;;;;;;5113657;28;20461;-59
2021/01/08 01:46:32;;;;;;;96.90;51.78;;;16.90;56.60;;;;;;5113917;28;20019;-59
2021/01/08 01:48:58;;;;;;;92.30;50.50;;;17.00;56.30;;;;;;5113601;28;20035;-59
2021/01/08 01:51:24;;;;;;;83.90;48.13;;;17.00;56.40;;;;;;5113707;28;20027;-60
2021/01/08 01:53:51;;;;;;;86.88;49.80;;;17.00;56.40;;;;;;5113709;28;20461;-59
2021/01/08 01:56:16;;;;;;;89.65;47.08;;;16.90;56.50;;;;;;5113856;28;20111;-59
2021/01/08 01:58:42;;;;;;;85.85;47.38;;;16.90;56.40;;;;;;5113622;28;20146;-59
2021/01/08 02:01:10;;;;;;;86.40;48.63;;;16.90;56.50;;;;;;5115465;28;20118;-59
2021/01/08 02:04:02;;;;;;;84.10;46.08;;;17.00;56.50;;;;;;5117488;28;20059;-59
2021/01/08 02:06:36;;;;;;;77.93;43.38;;;16.90;56.50;;;;;;5115658;28;20032;-59
2021/01/08 02:09:12;;;;;;;79.80;44.42;;;16.80;56.80;;;;;;5117076;28;20028;-59
2021/01/08 02:11:42;;;;;;;81.70;46.17;;;16.80;56.90;;;;;;5117312;28;20062;-59
2021/01/08 02:14:30;;;;;;;79.00;43.78;;;16.70;56.90;;;;;;5117190;28;20469;-59
2021/01/08 02:16:58;;;;;;;80.80;44.58;;;16.80;56.70;;;;;;5117807;28;20059;-60
2021/01/08 02:19:33;;;;;;;75.80;43.20;;;16.80;56.60;;;;;;5117232;28;20547;-59
2021/01/08 02:22:07;;;;;;;79.47;42.38;;;16.90;56.20;;;;;;5117170;28;20053;-59
2021/01/08 02:24:44;;;;;;;69.20;41.28;;;17.00;56.10;;;;;;5117241;28;20382;-59
2021/01/08 02:27:10;;;;;;;73.03;41.53;;;16.90;56.10;;;;;;5117090;28;20019;-59
2021/01/08 02:29:37;;;;;;;69.38;41.03;;;17.00;56.20;;;;;;5117017;28;20040;-59
2021/01/08 02:32:02;;;;;;;69.57;37.92;;;17.10;56.10;;;;;;5117003;28;20039;-59
2021/01/08 02:34:28;;;;;;;66.97;37.72;;;17.10;55.90;;;;;;5116818;28;20023;-59
2021/01/08 02:36:55;;;;;;;69.93;38.00;;;17.20;55.80;;;;;;5116938;28;20023;-59
2021/01/08 02:39:22;;;;;;;66.03;37.30;;;17.30;55.50;;;;;;5116842;28;20036;-59
2021/01/08 02:41:51;;;;;;;70.97;38.70;;;17.30;55.50;;;;;;5116794;28;20061;-59
2021/01/08 02:44:17;;;;;;;64.13;35.83;;;17.40;55.40;;;;;;5116748;28;20020;-59
2021/01/08 02:46:44;;;;;;;64.22;35.90;;;17.40;55.40;;;;;;5116946;28;20412;-58
2021/01/08 02:49:10;;;;;;;66.45;34.95;;;17.40;55.50;;;;;;5116407;28;20544;-59
2021/01/08 02:51:36;;;;;;;60.40;35.25;;;17.40;55.60;;;;;;5116697;28;20107;-58
2021/01/08 02:54:03;;;;;;;59.47;35.00;;;17.50;55.40;;;;;;5116282;28;20449;-59
2021/01/08 02:56:35;;;;;;;62.85;33.60;;;17.70;55.00;;;;;;5116525;28;20027;-59
2021/01/08 02:59:02;;;;;;;55.15;31.83;;;17.80;54.40;;;;;;5116809;28;20034;-58
2021/01/08 03:01:30;;;;;;;63.00;36.08;;;17.90;54.40;;;;;;5116204;28;20160;-58
2021/01/08 03:04:00;;;;;;;60.95;33.67;;;17.90;54.50;;;;;;5116517;28;20038;-58
2021/01/08 03:06:27;;;;;;;54.17;31.20;;;17.70;54.50;;;;;;5116219;28;20028;-58
2021/01/08 03:08:54;;;;;;;54.63;31.55;;;17.60;54.60;;;;;;5116187;28;20035;-59
2021/01/08 03:11:19;;;;;;;55.65;32.97;;;17.60;54.60;;;;;;5116094;28;20054;-58
2021/01/08 03:13:46;;;;;;;54.00;29.83;;;17.60;54.70;;;;;;5116086;28;20447;-59
2021/01/08 03:16:13;;;;;;;56.17;30.40;;;17.60;54.80;;;;;;5116120;28;20064;-59
2021/01/08 03:18:39;;;;;;;53.85;29.52;;;17.50;54.80;;;;;;5115762;28;20031;-58
2021/01/08 03:21:04;;;;;;;56.80;29.73;;;17.50;54.90;;;;;;5115998;28;20488;-59
2021/01/08 03:23:30;;;;;;;53.70;29.10;;;17.40;54.90;;;;;;5116001;28;20054;-58
2021/01/08 03:25:56;;;;;;;48.42;28.00;;;17.40;55.00;;;;;;5116293;28;20485;-59
2021/01/08 03:28:22;;;;;;;49.28;27.25;;;17.40;55.00;;;;;;5115721;28;20019;-59
2021/01/08 03:30:48;;;;;;;53.60;28.67;;;17.30;55.10;;;;;;5115792;28;20106;-59
2021/01/08 03:33:13;;;;;;;52.92;27.92;;;17.30;55.10;;;;;;5115568;28;20122;-58
2021/01/08 03:35:39;;;;;;;46.10;25.70;;;17.30;55.20;;;;;;5115640;28;20024;-59
2021/01/08 03:38:05;;;;;;;48.72;25.02;;;17.30;55.30;;;;;;5115848;28;20035;-59
2021/01/08 03:40:30;;;;;;;52.88;26.50;;;17.20;55.30;;;;;;5115621;28;20063;-58
2021/01/08 03:42:56;;;;;;;42.30;24.45;;;17.20;55.40;;;;;;5115543;28;20421;-59
2021/01/08 03:45:21;;;;;;;44.53;25.85;;;17.20;55.50;;;;;;5115549;28;20024;-59
2021/01/08 03:47:47;;;;;;;43.47;23.83;;;17.20;55.40;;;;;;5115567;28;20488;-59
2021/01/08 03:50:13;;;;;;;44.47;25.13;;;17.20;55.50;;;;;;5115135;28;20038;-59
2021/01/08 03:52:38;;;;;;;37.30;22.35;;;17.20;55.60;;;;;;5115367;28;20172;-59
2021/01/08 03:55:04;;;;;;;43.17;23.45;;;17.20;55.60;;;;;;5115676;28;20020;-59
2021/01/08 03:57:30;;;;;;;37.72;22.63;;;17.10;55.60;;;;;;5115238;28;20019;-58
2021/01/08 03:59:55;;;;;;;39.55;22.80;;;17.20;55.50;;;;;;5115218;28;20024;-58
2021/01/08 04:02:21;;;;;;;44.30;23.35;;;17.10;55.70;;;;;;5114941;28;20059;-58
2021/01/08 04:04:47;;;;;;;41.72;22.13;;;17.10;55.60;;;;;;5114822;28;20106;-59
2021/01/08 04:07:12;;;;;;;35.00;20.52;;;17.10;55.60;;;;;;5115129;28;20035;-59
2021/01/08 04:09:38;;;;;;;37.25;21.10;;;17.10;55.40;;;;;;5114802;28;20031;-59
2021/01/08 04:12:04;;;;;;;41.97;22.20;;;17.00;55.40;;;;;;5115027;28;20473;-59
2021/01/08 04:14:29;;;;;;;41.08;21.60;;;17.00;55.60;;;;;;5114923;28;20024;-58
2021/01/08 04:16:55;;;;;;;35.50;20.58;;;16.90;55.90;;;;;;5114867;28;20480;-59
2021/01/08 04:19:20;;;;;;;37.85;19.95;;;16.90;55.90;;;;;;5114856;28;20034;-59
2021/01/08 04:21:46;;;;;;;37.10;19.92;;;16.80;56.00;;;;;;5115032;28;20023;-59
2021/01/08 04:24:13;;;;;;;35.08;20.10;;;16.80;56.00;;;;;;5113793;28;20113;-59
2021/01/08 04:26:40;;;;;;;36.20;20.13;;;16.90;55.90;;;;;;5114692;28;20068;-58
2021/01/08 04:29:05;;;;;;;35.33;19.50;;;16.90;55.50;;;;;;5114568;28;20024;-58
2021/01/08 04:31:31;;;;;;;30.85;17.13;;;17.10;55.40;;;;;;5114675;28;20035;-58
2021/01/08 04:33:57;;;;;;;33.67;17.15;;;17.10;55.30;;;;;;5114290;28;20023;-58
2021/01/08 04:36:23;;;;;;;35.45;19.35;;;;;;;;;;5114556;28;20192;-58
2021/01/08 04:38:48;;;;;;;31.80;16.10;;;17.10;54.80;;;;;;5114531;28;20020;-58
2021/01/08 04:41:15;;;;;;;31.40;17.73;;;17.10;55.30;;;;;;5114677;28;20456;-58
2021/01/08 04:43:40;;;;;;;28.98;16.75;;;17.20;55.20;;;;;;5114520;28;20032;-58
2021/01/08 04:46:27;;;;;;;30.60;16.65;;;17.20;55.10;;;;;;5114160;28;20028;-60
2021/01/08 04:48:56;;;;;;;29.23;17.02;;;17.30;55.10;;;;;;5113869;28;20126;-59
2021/01/08 04:51:23;;;;;;;29.98;16.77;;;17.30;54.70;;;;;;5114371;28;20032;-58
2021/01/08 04:53:50;;;;;;;26.48;15.13;;;17.40;54.80;;;;;;5114376;28;20012;-58
2021/01/08 04:56:18;;;;;;;26.75;16.38;;;17.40;54.80;;;;;;5114218;28;20027;-58
2021/01/08 04:58:46;;;;;;;29.08;16.25;;;17.30;54.90;;;;;;5114161;28;20058;-59
2021/01/08 05:01:11;;;;;;;26.73;15.65;;;17.40;55.00;;;;;;5114243;28;20039;-59
2021/01/08 05:03:37;;;;;;;28.58;16.67;;;17.60;54.70;;;;;;5114555;28;20028;-59
2021/01/08 05:06:03;;;;;;;25.77;14.98;;;17.70;54.20;;;;;;5114208;28;20396;-58
2021/01/08 05:08:29;;;;;;;27.70;15.95;;;17.90;54.20;;;;;;5114397;28;20110;-58
2021/01/08 05:10:56;;;;;;;24.15;14.20;;;17.90;53.90;;;;;;5114330;28;20127;-58
2021/01/08 05:13:31;;;;;;;29.02;15.68;;;18.00;53.60;;;;;;5113929;28;20031;-59
2021/01/08 05:16:01;;;;;;;26.08;15.27;;;18.10;53.20;;;;;;5114280;28;20389;-59
2021/01/08 05:18:30;;;;;;;27.90;13.50;;;18.10;53.20;;;;;;5113608;28;20042;-59
2021/01/08 05:20:56;;;;;;;24.05;13.88;;;18.10;53.10;;;;;;5114090;28;20416;-58
2021/01/08 05:23:22;;;;;;;25.70;12.40;;;18.20;53.60;;;;;;5113917;28;20027;-58
2021/01/08 05:25:48;;;;;;;21.85;13.40;;;18.20;53.50;;;;;;5113760;28;20038;-59
2021/01/08 05:28:18;;;;;;;25.80;12.82;;;18.30;52.60;;;;;;5113731;28;20038;-58
2021/01/08 05:30:44;;;;;;;21.58;14.02;;;18.40;52.60;;;;;;5113822;28;20518;-58
2021/01/08 05:33:14;;;;;;;24.65;13.70;;;18.40;52.40;;;;;;5113928;28;20036;-58
2021/01/08 05:35:41;;;;;;;;;;;18.50;52.30;;;;;;5117670;28;20024;-58
2021/01/08 05:38:07;;;;;;;21.20;11.40;;;18.50;52.20;;;;;;5117730;27;20341;-60
2021/01/08 05:40:34;;;;;;;22.80;13.38;;;18.60;52.10;;;;;;5118704;28;20032;-59
2021/01/08 05:43:03;;;;;;;26.20;13.25;;;18.60;52.00;;;;;;5117941;28;20028;-59
2021/01/08 05:45:30;;;;;;;20.10;12.23;;;18.70;51.80;;;;;;5118039;28;20031;-58
2021/01/08 05:47:57;;;;;;;20.98;12.38;;;18.70;51.80;;;;;;5118222;28;20032;-59
2021/01/08 05:50:25;;;;;;;18.50;11.35;;;18.80;51.60;;;;;;5117713;27;20043;-58
2021/01/08 05:53:11;;;;;;;21.77;12.45;;;18.90;51.60;;;;;;5117737;28;20393;-59
2021/01/08 05:55:41;;;;;;;23.02;11.50;;;18.90;51.50;;;;;;5117774;28;20031;-58
2021/01/08 05:58:23;;;;;;;20.58;11.27;;;19.00;51.30;;;;;;5118088;28;20027;-59
2021/01/08 06:01:03;;;;;;;21.48;10.80;;;19.10;51.20;;;;;;5117606;28;20056;-59
2021/01/08 06:03:30;;;;;;;24.17;11.20;;;19.00;51.40;;;;;;5117603;28;20139;-59
2021/01/08 06:05:58;;;;;;;17.90;10.07;;;19.00;51.60;;;;;;5117526;28;20518;-59
2021/01/08 06:08:36;;;;;;;19.80;10.93;;;19.00;51.60;;;;;;5117444;28;20116;-59
2021/01/08 06:11:05;;;;;;;18.50;10.20;;;19.00;51.70;;;;;;5117544;28;20055;-59
2021/01/08 06:13:32;;;;;;;18.60;9.90;;;19.10;51.60;;;;;;5117148;28;20038;-59
2021/01/08 06:16:00;;;;;;;19.02;10.18;;;19.10;51.50;;;;;;5117354;28;20103;-59
2021/01/08 06:18:26;;;;;;;20.77;10.85;;;19.20;51.30;;;;;;5117022;28;20023;-59
2021/01/08 06:20:54;;;;;;;16.75;9.70;;;19.20;51.10;;;;;;5117532;28;20023;-59
2021/01/08 06:23:52;;;;;;;18.00;9.27;;;19.20;51.20;;;;;;5117214;28;20027;-59
2021/01/08 06:26:19;;;;;;;18.60;9.35;;;19.10;51.30;;;;;;5093317;28;20469;-59
2021/01/08 06:28:47;;;;;;;19.98;10.15;;;19.10;51.30;;;;;;5117101;28;20028;-59
2021/01/08 06:31:21;;;;;;;17.30;9.50;;;18.50;50.50;;;;;;5117657;28;20119;-59
2021/01/08 06:33:55;;;;;;;17.35;9.77;;;19.10;51.80;;;;;;5117180;28;20024;-59
2021/01/08 06:36:29;;;;;;;15.70;9.65;;;18.90;53.10;;;;;;5117000;28;20038;-61
2021/01/08 06:38:59;;;;;;;16.92;10.15;;;18.80;53.70;;;;;;5116703;28;20457;-58
2021/01/08 06:41:25;;;;;;;23.55;9.88;;;18.90;55.40;;;;;;5117227;28;20027;-59
2021/01/08 06:43:52;;;;;;;18.02;9.32;;;18.70;54.90;;;;;;5116935;28;20024;-59
2021/01/08 06:46:38;;;;;;;19.83;8.70;;;18.80;55.40;;;;;;5115681;28;20388;-59
2021/01/08 06:49:07;;;;;;;21.63;9.18;;;18.80;54.80;;;;;;5116402;28;20362;-61
2021/01/08 06:51:37;;;;;;;24.73;8.43;;;18.80;54.40;;;;;;5116556;28;20372;-60
2021/01/08 06:54:08;;;;;;;22.15;8.73;;;18.70;54.40;;;;;;5115759;28;20035;-59
2021/01/08 06:56:45;;;;;;;35.60;16.20;;;18.70;54.40;;;;;;5116780;28;20034;-59
2021/01/08 06:59:17;;;;;;;138.15;67.13;;;18.60;52.30;;;;;;5116675;28;20109;-59
2021/01/08 07:01:45;;;;;;;127.55;59.97;;;18.60;51.70;;;;;;5115733;27;20545;-59
2021/01/08 07:04:11;;;;;;;161.02;81.07;;;18.50;51.20;;;;;;5116467;28;20028;-59
2021/01/08 07:06:38;;;;;;;146.95;72.07;;;18.50;50.60;;;;;;5116095;28;20031;-59
2021/01/08 07:09:05;;;;;;;143.23;72.97;;;18.60;49.50;;;;;;5115848;28;20043;-59
2021/01/08 07:11:32;;;;;;;185.30;94.30;;;18.60;49.00;;;;;;5115537;28;20063;-60
2021/01/08 07:14:05;;;;;;;212.85;108.97;;;18.70;48.40;;;;;;5115802;28;20084;-60
2021/01/08 07:16:32;;;;;;;208.00;104.15;;;18.60;48.10;;;;;;5116090;28;20100;-55
2021/01/08 07:19:05;;;;;;;170.02;92.43;;;18.70;47.90;;;;;;5116073;28;20118;-59
2021/01/08 07:21:32;;;;;;;123.10;67.13;;;18.50;47.10;;;;;;5115952;28;20098;-59
2021/01/08 07:23:58;;;;;;;95.28;51.72;;;18.30;45.10;;;;;;5115977;28;20453;-61
2021/01/08 07:26:27;;;;;;;70.63;37.30;;;18.10;43.40;;;;;;5115880;28;20061;-60
2021/01/08 07:28:57;;;;;;;64.28;36.03;;;18.00;42.00;;;;;;5116162;28;20590;-59
2021/01/08 07:31:31;;;;;;;57.15;32.38;;;18.00;43.10;;;;;;5115196;28;20523;-61
2021/01/08 07:34:01;;;;;;;53.40;27.67;;;18.10;43.80;;;;;;5114100;28;20076;-60
2021/01/08 07:36:28;;;;;;;48.42;27.63;;;18.20;44.50;;;;;;5114697;28;20071;-59
2021/01/08 07:38:55;;;;;;;46.22;24.20;;;18.40;45.20;;;;;;5115141;28;20036;-62
2021/01/08 07:41:35;;;;;;;40.15;22.92;;;18.50;46.00;;;;;;5113448;28;20030;-60
2021/01/08 07:44:01;;;;;;;40.57;21.47;;;18.60;46.40;;;;;;5113485;28;20415;-61
2021/01/08 07:46:28;;;;;;;37.92;20.40;;;18.70;46.90;;;;;;5113193;28;20269;-62
2021/01/08 07:48:56;;;;;;;37.38;19.80;;;18.80;47.30;;;;;;5113116;28;20187;-60
2021/01/08 07:51:23;;;;;;;32.45;16.95;;;18.90;47.50;;;;;;5112992;28;20152;-61
2021/01/08 07:53:53;;;;;;;31.40;17.83;;;18.90;47.80;;;;;;5113254;28;20401;-60
2021/01/08 07:56:25;;;;;;;32.45;17.65;;;19.00;47.80;;;;;;5115332;28;20039;-59
2021/01/08 07:59:03;;;;;;;29.52;15.45;;;19.00;47.90;;;;;;5115733;28;20461;-59
2021/01/08 08:01:29;;;;;;;27.85;15.23;;;19.10;48.00;;;;;;5115224;28;20102;-60
2021/01/08 08:04:05;;;;;;;25.67;13.80;;;18.90;47.10;;;;;;5115164;28;20023;-59
2021/01/08 08:06:33;;;;;;;24.15;12.60;;;18.90;47.00;;;;;;5115210;28;20129;-61
2021/01/08 08:09:01;;;;;;;36.42;15.00;;;18.90;46.90;;;;;;5115314;28;20032;-59
2021/01/08 08:11:28;;;;;;;30.38;14.13;;;18.80;47.20;;;;;;5114800;28;20048;-59
2021/01/08 08:13:54;;;;;;;24.10;12.85;;;18.70;47.40;;;;;;5114854;28;20031;-59
2021/01/08 08:16:41;;;;;;;27.92;12.57;;;18.70;47.70;;;;;;5114855;28;20390;-59
2021/01/08 08:19:08;;;;;;;29.60;13.45;;;18.70;47.90;;;;;;5115062;28;20095;-59
2021/01/08 08:21:35;;;;;;;23.92;12.82;;;18.80;48.00;;;;;;5114735;28;20098;-59
2021/01/08 08:24:02;;;;;;;24.35;12.18;;;18.80;48.00;;;;;;5114859;28;20118;-59
2021/01/08 08:26:29;;;;;;;27.20;12.25;;;18.80;48.10;;;;;;5114645;28;20076;-61
2021/01/08 08:29:06;;;;;;;23.67;10.93;;;18.80;48.00;;;;;;5114418;28;20460;-59
2021/01/08 08:31:52;;;;;;;26.40;10.88;;;18.80;47.80;;;;;;5114612;28;20034;-59
2021/01/08 08:34:30;;;;;;;24.08;12.13;;;18.70;47.30;;;;;;5114747;28;20028;-59
2021/01/08 08:37:09;;;;;;;20.48;9.07;;;18.60;46.90;;;;;;5114609;28;20024;-60
2021/01/08 08:39:35;;;;;;;17.65;8.70;;;18.60;46.80;;;;;;5114552;28;20049;-59
2021/01/08 08:42:01;;;;;;;19.20;10.05;;;18.60;46.30;;;;;;5114507;28;20024;-59
2021/01/08 08:44:27;;;;;;;17.42;9.85;;;18.60;46.30;;;;;;5114535;28;20065;-59
2021/01/08 08:46:55;;;;;;;15.65;8.75;;;18.60;46.30;;;;;;5114726;28;20462;-59
2021/01/08 08:49:25;;;;;;;19.95;8.80;;;18.50;46.60;;;;;;5114164;28;20035;-59
2021/01/08 08:51:52;;;;;;;17.45;7.80;;;18.60;46.60;;;;;;5114077;28;20076;-59
2021/01/08 08:54:18;;;;;;;15.93;8.93;;;18.60;46.80;;;;;;5114356;28;20362;-59
2021/01/08 08:56:55;;;;;;;22.40;8.93;;;18.60;46.90;;;;;;5114264;28;20076;-59
2021/01/08 08:59:42;;;;;;;17.75;8.60;;;18.50;47.10;;;;;;5114618;28;20126;-59
2021/01/08 09:02:09;;;;;;;15.13;8.38;;;18.50;47.30;;;;;;5114077;28;20170;-60
2021/01/08 09:04:35;;;;;;;14.75;7.55;;;18.50;47.40;;;;;;5114694;28;20047;-63
2021/01/08 09:07:15;;;;;;;18.42;8.80;;;18.50;47.60;;;;;;5114689;28;20027;-59
2021/01/08 09:09:44;;;;;;;14.25;7.65;;;18.40;48.00;;;;;;5113513;28;20067;-59
2021/01/08 09:12:29;;;;;;;16.98;8.60;;;18.50;48.30;;;;;;5114224;28;20035;-59
2021/01/08 09:15:17;;;;;;;18.05;7.68;;;18.70;48.10;;;;;;5114149;28;20019;-59
2021/01/08 09:17:46;;;;;;;18.27;7.72;;;18.80;48.00;;;;;;5114111;28;20061;-59
2021/01/08 09:20:17;;;;;;;20.38;7.90;;;18.70;48.00;;;;;;5114514;28;20026;-59
2021/01/08 09:22:43;;;;;;;11.95;7.78;;;18.70;48.10;;;;;;5114100;28;20102;-59
2021/01/08 09:25:10;;;;;;;12.13;7.05;;;18.70;48.00;;;;;;5113632;28;20040;-59
2021/01/08 09:27:36;;;;;;;16.85;7.45;;;18.50;48.20;;;;;;5114731;28;20055;-59
2021/01/08 09:30:12;;;;;;;11.45;6.90;;;18.50;48.50;;;;;;5113792;28;20385;-59
2021/01/08 09:32:38;;;;;;;12.88;7.15;;;18.50;48.60;;;;;;5113883;28;20059;-59
2021/01/08 09:35:08;;;;;;;17.70;7.28;;;18.40;48.80;;;;;;5113716;28;20482;-59
2021/01/08 09:37:42;;;;;;;;;;;18.40;48.90;;;;;;5114174;28;20373;-59
2021/01/08 09:40:16;;;;;;;15.82;8.05;;;18.30;48.80;;;;;;5114270;28;19911;-59
2021/01/08 09:42:43;;;;;;;13.48;7.03;;;18.30;49.10;;;;;;5113812;28;20496;-59
2021/01/08 09:45:20;;;;;;;12.45;6.75;;;18.30;49.20;;;;;;5113843;28;20038;-59
2021/01/08 09:47:46;;;;;;;14.07;6.65;;;18.20;49.30;;;;;;5113701;28;20023;-59
2021/01/08 09:50:27;;;;;;;12.23;6.47;;;18.30;49.30;;;;;;5113503;28;20027;-59
2021/01/08 09:52:57;;;;;;;12.48;6.95;;;18.30;49.30;;;;;;5113872;28;20114;-59
2021/01/08 09:55:24;;;;;;;11.33;6.97;;;18.20;49.60;;;;;;5113711;28;20027;-59
2021/01/08 09:57:54;;;;;;;9.73;5.97;;;18.20;49.60;;;;;;5113702;28;20423;-60
2021/01/08 10:00:27;;;;;;;12.98;6.72;;;18.20;49.60;;;;;;5113911;28;20070;-60
2021/01/08 10:02:54;;;;;;;12.25;5.93;;;18.30;49.40;;;;;;5113532;28;20040;-59
2021/01/08 10:05:19;;;;;;;11.10;7.03;;;18.40;49.20;;;;;;5112352;28;20484;-59
2021/01/08 10:07:46;;;;;;;13.40;6.05;;;18.50;48.90;;;;;;5113760;28;20024;-59
2021/01/08 10:10:14;;;;;;;14.73;6.63;;;18.60;48.80;;;;;;5113121;28;20063;-59
2021/01/08 10:12:45;;;;;;;10.52;5.78;;;18.70;48.70;;;;;;5113450;28;20028;-60
2021/01/08 10:15:12;;;;;;;11.40;6.43;;;18.80;48.50;;;;;;5113312;28;20027;-59
2021/01/08 10:17:51;;;;;;;10.85;6.10;;;19.00;48.40;;;;;;5113790;28;20035;-59
2021/01/08 10:20:25;;;;;;;12.93;6.18;;;19.10;48.30;;;;;;5114263;28;20073;-59
2021/01/08 10:22:53;;;;;;;11.00;5.18;;;19.10;48.10;;;;;;5116521;28;20480;-59
2021/01/08 10:25:22;;;;;;;8.95;6.18;;;19.10;47.80;;;;;;5117404;28;20102;-60
2021/01/08 10:27:48;;;;;;;10.82;6.25;;;19.10;47.70;;;;;;5117127;28;20031;-59
2021/01/08 10:30:14;;;;;;;13.13;5.93;;;19.10;47.80;;;;;;5117212;28;20477;-60
2021/01/08 10:32:50;;;;;;;9.90;6.07;;;19.10;48.00;;;;;;5117249;28;20027;-59
2021/01/08 10:35:19;;;;;;;9.13;5.18;;;19.00;48.10;;;;;;5117492;28;20529;-59
2021/01/08 10:37:48;;;;;;;12.48;6.28;;;19.00;48.30;;;;;;5116694;28;20050;-59
2021/01/08 10:40:13;;;;;;;10.63;6.03;;;19.00;48.30;;;;;;5116876;28;20028;-60
2021/01/08 10:42:39;;;;;;;9.52;5.18;;;18.90;48.90;;;;;;5116877;28;20525;-59
2021/01/08 10:45:06;;;;;;;10.93;5.57;;;18.90;48.40;;;;;;5116840;28;20135;-60
2021/01/08 10:47:32;;;;;;;11.10;5.63;;;18.90;48.50;;;;;;5116785;28;20024;-59
2021/01/08 10:50:00;;;;;;;10.10;5.63;;;18.90;48.50;;;;;;5116574;28;20465;-59
2021/01/08 10:52:26;;;;;;;8.43;5.20;;;18.80;48.60;;;;;;5116532;28;20474;-59
2021/01/08 10:54:51;;;;;;;11.25;5.40;;;18.80;48.50;;;;;;5116574;28;20114;-59
2021/01/08 10:57:17;;;;;;;9.43;5.30;;;18.90;48.30;;;;;;5116351;28;20106;-60
2021/01/08 10:59:43;;;;;;;8.88;5.25;;;18.90;48.20;;;;;;5116485;28;20034;-60
2021/01/08 11:02:11;;;;;;;10.35;4.75;;;18.90;48.20;;;;;;5116301;28;20028;-59
2021/01/08 11:04:37;;;;;;;7.93;4.60;;;18.90;48.30;;;;;;5116517;28;20028;-59
2021/01/08 11:07:02;;;;;;;13.20;5.80;;;18.90;48.40;;;;;;5116476;28;20035;-60
2021/01/08 11:09:28;;;;;;;8.18;4.93;;;18.90;48.40;;;;;;5116006;28;20481;-59
2021/01/08 11:11:54;;;;;;;9.35;5.20;;;19.00;48.40;;;;;;5116201;28;20031;-59
2021/01/08 11:14:19;;;;;;;8.20;4.93;;;19.00;48.50;;;;;;5116286;28;20073;-59
2021/01/08 11:16:45;;;;;;;7.78;4.60;;;19.10;48.30;;;;;;5116410;28;20047;-59
2021/01/08 11:19:11;;;;;;;9.02;4.90;;;19.20;48.00;;;;;;5116128;28;20028;-60
2021/01/08 11:21:36;;;;;;;7.75;4.50;;;19.10;48.00;;;;;;5115929;28;20373;-59
2021/01/08 11:24:02;;;;;;;11.15;5.35;;;19.20;48.10;;;;;;5116489;28;20040;-59
2021/01/08 11:26:28;;;;;;;8.68;4.93;;;19.10;47.90;;;;;;5115981;28;20424;-59
2021/01/08 11:28:55;;;;;;;8.52;5.25;;;19.00;48.10;;;;;;5115923;28;20098;-59
2021/01/08 11:31:21;;;;;;;7.30;4.50;;;18.90;48.20;;;;;;5115746;28;20480;-59
2021/01/08 11:33:46;;;;;;;8.35;4.60;;;18.90;48.50;;;;;;5115214;28;20040;-59
2021/01/08 11:36:17;;;;;;;9.25;5.20;;;18.80;48.60;;;;;;5115749;28;20028;-60
2021/01/08 11:38:42;;;;;;;9.05;4.65;;;18.70;48.80;;;;;;5115884;28;20055;-59
2021/01/08 11:41:09;;;;;;;9.15;4.95;;;18.70;49.00;;;;;;5115602;28;20120;-59
2021/01/08 11:43:35;;;;;;;9.20;5.53;;;18.60;49.10;;;;;;5115356;28;20015;-57
2021/01/08 11:46:01;;;;;;;9.93;5.80;;;18.50;49.00;;;;;;5116201;28;20034;-61
2021/01/08 11:48:26;;;;;;;310.70;161.65;;;18.40;48.60;;;;;;5115463;28;20362;-61
2021/01/08 11:50:52;;;;;;;103.80;59.55;;;18.40;49.20;;;;;;5115273;28;20522;-59
2021/01/08 11:53:18;;;;;;;108.03;61.05;;;18.40;49.20;;;;;;5115376;28;20080;-58
2021/01/08 11:55:44;;;;;;;471.13;286.58;;;18.50;49.50;;;;;;5115263;28;20034;-59
2021/01/08 11:58:10;;;;;;;430.05;250.70;;;18.50;49.70;;;;;;5115302;28;20051;-59
2021/01/08 12:00:35;;;;;;;396.40;229.85;;;18.60;49.60;;;;;;5115278;28;20461;-58
2021/01/08 12:03:01;;;;;;;265.27;151.88;;;18.60;49.60;;;;;;5115160;28;20102;-62
2021/01/08 12:05:27;;;;;;;179.73;102.28;;;18.50;47.90;;;;;;5113467;28;20537;-62
2021/01/08 12:07:52;;;;;;;148.95;80.70;;;18.40;46.90;;;;;;5113939;28;20020;-59
2021/01/08 12:10:18;;;;;;;107.22;64.20;;;18.50;47.50;;;;;;5114581;28;20055;-58
2021/01/08 12:12:47;;;;;;;79.25;48.50;;;18.80;46.60;;;;;;5113679;28;20034;-61
2021/01/08 12:15:14;;;;;;;75.38;44.70;;;18.90;45.00;;;;;;5115000;28;20034;-61
2021/01/08 12:17:42;;;;;;;67.20;38.08;;;19.10;44.60;;;;;;5114978;28;20028;-59
2021/01/08 12:20:09;;;;;;;65.22;37.30;;;19.20;44.30;;;;;;5114849;28;20149;-59
2021/01/08 12:22:34;;;;;;;63.08;35.05;;;19.30;48.80;;;;;;5132310;27;20047;-62
2021/01/08 12:25:00;;;;;;;66.28;33.53;;;19.20;50.40;;;;;;5135517;27;20093;-58
2021/01/08 12:27:26;;;;;;;62.83;31.13;;;19.10;53.60;;;;;;5135243;27;20098;-58
2021/01/08 12:29:52;;;;;;;61.70;32.10;;;19.00;55.00;;;;;;5115334;27;20027;-58
2021/01/08 12:32:17;;;;;;;69.65;35.72;;;19.10;55.50;;;;;;5114464;28;20023;-59
2021/01/08 12:34:43;;;;;;;66.22;37.80;;;19.20;56.80;;;;;;5114949;28;20067;-57